Time;durP1;ratioP1;P1;durP2;ratioP2;P2;SDS_P1;SDS_P2;PMS_P1;PMS_P2;Temp;Humidity;BMP_temperature;BMP_pressure;BME280_temperature;BME280_humidity;BME280_pressure;Samples;Min_cycle;Max_cycle;Signal;HPM_P1;HPM_P2
2023/07/28 00:02:06;;;;;;;45.38;41.22;;;;;;;14.71;100.00;100998.22;5056512;28;20436;-79
2023/07/28 00:04:35;;;;;;;41.17;37.45;;;;;;;14.63;100.00;100993.19;5058834;28;20399;-78
2023/07/28 00:07:02;;;;;;;41.33;37.58;;;;;;;14.73;100.00;100992.63;5057652;28;20053;-79
2023/07/28 00:09:29;;;;;;;38.75;35.47;;;;;;;14.11;100.00;100995.44;5061701;28;20456;-77
2023/07/28 00:11:57;;;;;;;39.85;36.35;;;;;;;14.66;100.00;100996.22;5057230;28;20433;-77
2023/07/28 00:14:24;;;;;;;42.72;39.05;;;;;;;14.70;100.00;100991.22;5060298;28;20053;-78
2023/07/28 00:16:51;;;;;;;41.28;37.17;;;;;;;14.74;100.00;100983.59;5056618;28;20053;-78
2023/07/28 00:19:20;;;;;;;38.70;35.25;;;;;;;14.72;100.00;100986.47;5056151;28;20048;-77
2023/07/28 00:21:48;;;;;;;42.13;38.42;;;;;;;14.73;100.00;100987.28;5059531;28;20045;-78
2023/07/28 00:24:15;;;;;;;39.50;36.00;;;;;;;14.34;100.00;100995.56;5062112;28;20040;-78
2023/07/28 00:26:42;;;;;;;41.17;37.65;;;;;;;14.49;100.00;100994.34;5058687;28;20413;-77
2023/07/28 00:29:09;;;;;;;43.40;39.78;;;;;;;14.65;100.00;101002.59;5054596;28;20052;-77
2023/07/28 00:31:35;;;;;;;42.10;38.17;;;;;;;14.81;100.00;101005.69;5064109;28;20523;-77
2023/07/28 00:34:03;;;;;;;46.75;42.58;;;;;;;14.78;100.00;100998.94;5061364;28;20049;-77
2023/07/28 00:36:32;;;;;;;45.65;41.83;;;;;;;14.75;100.00;100998.56;5059352;28;20063;-77
2023/07/28 00:38:59;;;;;;;48.28;43.97;;;;;;;14.84;100.00;101005.25;5059093;28;20047;-77
2023/07/28 00:41:26;;;;;;;45.22;41.38;;;;;;;14.60;100.00;101004.31;5062793;28;20055;-78
2023/07/28 00:43:53;;;;;;;46.30;42.40;;;;;;;14.70;100.00;101003.78;5054070;28;20440;-78
2023/07/28 00:46:22;;;;;;;41.88;38.28;;;;;;;14.77;100.00;101001.84;5059346;28;20052;-78
2023/07/28 00:48:52;;;;;;;43.65;40.05;;;;;;;14.77;100.00;101007.19;5064228;28;20052;-77
2023/07/28 00:51:19;;;;;;;47.38;43.55;;;;;;;14.76;100.00;101005.56;5060529;28;20036;-77
2023/07/28 00:53:47;;;;;;;43.95;40.05;;;;;;;14.70;100.00;101014.47;5065143;28;20040;-77
2023/07/28 00:56:15;;;;;;;45.33;41.47;;;;;;;14.69;100.00;101015.53;5061966;28;20064;-77
2023/07/28 00:58:42;;;;;;;42.40;38.70;;;;;;;14.75;100.00;101007.41;5063006;28;20533;-77
2023/07/28 01:01:08;;;;;;;47.05;43.25;;;;;;;14.65;100.00;101009.81;5063865;28;20053;-77
2023/07/28 01:03:35;;;;;;;41.95;38.17;;;;;;;14.61;100.00;101009.47;5065327;28;20052;-76
2023/07/28 01:06:12;;;;;;;44.15;40.55;;;;;;;14.47;100.00;101015.97;5064216;28;20045;-77
2023/07/28 01:08:47;;;;;;;42.65;38.97;;;;;;;14.45;100.00;101010.03;5063118;28;20069;-77
2023/07/28 01:11:15;;;;;;;42.88;39.30;;;;;;;14.24;100.00;101007.81;5061284;28;20440;-77
2023/07/28 01:13:42;;;;;;;39.67;36.08;;;;;;;14.43;100.00;101015.59;5062354;28;20049;-78
2023/07/28 01:16:09;;;;;;;42.67;38.80;;;;;;;13.48;100.00;101015.94;5061266;28;20045;-78
2023/07/28 01:18:37;;;;;;;44.80;41.00;;;;;;;13.91;100.00;101009.78;5064876;28;20056;-78
2023/07/28 01:21:07;;;;;;;42.88;39.25;;;;;;;14.05;100.00;101017.69;5064695;28;20051;-78
2023/07/28 01:23:42;;;;;;;48.50;44.47;;;;;;;14.37;100.00;101018.34;5059695;28;20416;-78
2023/07/28 01:26:11;;;;;;;40.90;37.13;;;;;;;13.93;100.00;101018.41;5059024;28;20605;-78
2023/07/28 01:28:41;;;;;;;41.00;37.80;;;;;;;13.68;100.00;101022.97;5061756;28;20056;-78
2023/07/28 01:31:08;;;;;;;42.10;38.10;;;;;;;13.68;100.00;101018.44;5065505;28;20049;-78
2023/07/28 01:33:35;;;;;;;38.72;35.20;;;;;;;13.80;100.00;101023.88;5060391;28;20048;-77
2023/07/28 01:36:02;;;;;;;40.17;36.53;;;;;;;13.86;100.00;101031.00;5060523;28;20052;-77
2023/07/28 01:38:30;;;;;;;39.45;35.97;;;;;;;14.07;100.00;101027.09;5060905;28;20095;-77
2023/07/28 01:40:57;;;;;;;45.97;42.13;;;;;;;13.98;100.00;101029.25;5064107;28;20048;-77
2023/07/28 01:43:23;;;;;;;38.17;34.78;;;;;;;13.87;100.00;101031.81;5062247;28;20076;-77
2023/07/28 01:45:52;;;;;;;42.38;38.83;;;;;;;14.03;100.00;101033.91;5065132;28;20060;-77
2023/07/28 01:48:19;;;;;;;41.40;37.85;;;;;;;14.49;100.00;101019.22;5058364;28;20048;-77
2023/07/28 01:50:45;;;;;;;46.85;42.97;;;;;;;14.35;100.00;101037.28;5063911;28;20489;-77
2023/07/28 01:53:12;;;;;;;42.35;38.53;;;;;;;14.08;100.00;101042.09;5063565;28;20047;-77
2023/07/28 01:55:39;;;;;;;40.33;36.67;;;;;;;14.03;100.00;101036.59;5061587;28;20519;-77
2023/07/28 01:58:06;;;;;;;37.22;33.90;;;;;;;13.82;100.00;101040.47;5060320;28;20436;-78
2023/07/28 02:00:33;;;;;;;39.15;35.90;;;;;;;14.09;100.00;101032.22;5063862;28;20071;-78
2023/07/28 02:03:03;;;;;;;40.92;36.72;;;;;;;14.02;100.00;101034.97;5061820;28;20041;-77
2023/07/28 02:05:30;;;;;;;45.33;41.53;;;;;;;13.58;100.00;101049.31;5058508;28;20075;-77
2023/07/28 02:07:57;;;;;;;48.35;44.22;;;;;;;13.62;100.00;101056.69;5062350;28;20053;-77
2023/07/28 02:10:24;;;;;;;47.47;43.67;;;;;;;13.41;100.00;101052.53;5061652;28;20432;-77
2023/07/28 02:12:51;;;;;;;50.30;46.17;;;;;;;13.42;100.00;101054.16;5062948;28;20102;-77
2023/07/28 02:15:18;;;;;;;46.60;42.95;;;;;;;13.56;100.00;101062.88;5064479;28;20049;-77
2023/07/28 02:17:45;;;;;;;44.00;40.42;;;;;;;13.57;100.00;101061.03;5057480;28;20040;-77
2023/07/28 02:20:15;;;;;;;48.90;44.80;;;;;;;13.31;100.00;101064.69;5066087;28;20049;-77
2023/07/28 02:22:42;;;;;;;49.95;45.65;;;;;;;13.70;100.00;101060.91;5059995;28;20076;-77
2023/07/28 02:25:10;;;;;;;45.90;41.88;;;;;;;13.16;100.00;101055.13;5063138;28;20051;-77
2023/07/28 02:27:37;;;;;;;47.80;43.67;;;;;;;13.25;100.00;101053.88;5060021;28;20428;-77
2023/07/28 02:30:05;;;;;;;43.45;40.05;;;;;;;13.09;100.00;101066.84;5061729;28;20547;-77
2023/07/28 02:32:32;;;;;;;52.80;48.67;;;;;;;13.39;100.00;101069.78;5059312;28;20041;-77
2023/07/28 02:34:59;;;;;;;45.53;41.40;;;;;;;13.23;100.00;101071.09;5066064;28;20612;-77
2023/07/28 02:37:27;;;;;;;42.25;38.75;;;;;;;12.61;100.00;101068.91;5059772;28;20048;-78
2023/07/28 02:39:54;;;;;;;49.25;45.05;;;;;;;12.36;100.00;101071.44;5057954;28;20048;-78
2023/07/28 02:42:21;;;;;;;49.13;45.13;;;;;;;12.96;100.00;101070.41;5058119;28;20045;-78
2023/07/28 02:44:48;;;;;;;50.17;46.30;;;;;;;13.23;100.00;101077.22;5057103;28;20585;-77
2023/07/28 02:47:14;;;;;;;51.47;47.53;;;;;;;13.42;100.00;101074.69;5056463;28;20064;-77
2023/07/28 02:49:43;;;;;;;38.90;35.70;;;;;;;13.41;100.00;101079.22;5060804;28;20056;-77
2023/07/28 02:52:09;;;;;;;37.78;34.42;;;;;;;12.61;100.00;101078.75;5058309;28;20552;-77
2023/07/28 02:54:38;;;;;;;39.90;36.40;;;;;;;12.78;100.00;101085.25;5056602;28;20048;-77
2023/07/28 02:57:05;;;;;;;37.70;34.42;;;;;;;12.95;100.00;101090.09;5060585;28;20049;-77
2023/07/28 02:59:32;;;;;;;37.40;34.25;;;;;;;12.80;100.00;101093.06;5057402;28;20048;-77
2023/07/28 03:01:58;;;;;;;35.72;32.47;;;;;;;12.65;100.00;101100.47;5057497;28;20044;-77
2023/07/28 03:04:25;;;;;;;32.88;30.02;;;;;;;12.69;100.00;101101.69;5061093;28;20076;-78
2023/07/28 03:06:54;;;;;;;39.40;30.38;;;;;;;12.21;100.00;101112.66;5063306;28;20056;-78
2023/07/28 03:09:21;;;;;;;29.70;27.17;;;;;;;12.10;100.00;101112.28;5059854;28;20051;-78
2023/07/28 03:11:49;;;;;;;31.02;28.17;;;;;;;12.44;100.00;101117.56;5062026;28;20052;-77
2023/07/28 03:14:17;;;;;;;30.15;27.15;;;;;;;12.82;100.00;101110.44;5064384;28;20075;-78
2023/07/28 03:16:44;;;;;;;29.40;26.42;;;;;;;12.71;100.00;101113.78;5057766;28;20049;-78
2023/07/28 03:19:10;;;;;;;29.35;27.00;;;;;;;12.88;100.00;101122.13;5060323;28;20057;-77
2023/07/28 03:21:37;;;;;;;30.38;27.33;;;;;;;12.87;100.00;101117.81;5057399;28;20475;-77
2023/07/28 03:24:05;;;;;;;28.65;25.92;;;;;;;12.48;100.00;101124.91;5060479;28;20048;-76
2023/07/28 03:26:32;;;;;;;28.02;25.48;;;;;;;12.46;100.00;101124.28;5066874;28;20072;-77
2023/07/28 03:29:00;;;;;;;28.92;26.25;;;;;;;12.76;100.00;101115.81;5062533;28;20052;-77
2023/07/28 03:31:27;;;;;;;31.17;28.85;;;;;;;12.80;100.00;101119.72;5057440;28;20045;-77
2023/07/28 03:33:53;;;;;;;32.10;29.35;;;;;;;12.69;100.00;101117.69;5058533;28;20045;-77
2023/07/28 03:36:20;;;;;;;29.70;27.13;;;;;;;13.01;100.00;101116.75;5056975;28;20405;-77
2023/07/28 03:38:47;;;;;;;29.63;26.85;;;;;;;13.22;100.00;101125.44;5060062;28;20049;-78
2023/07/28 03:41:14;;;;;;;30.40;27.73;;;;;;;13.40;100.00;101138.09;5062562;28;20148;-77
2023/07/28 03:43:42;;;;;;;30.45;27.88;;;;;;;13.28;100.00;101137.97;5056790;28;20428;-77
2023/07/28 03:46:10;;;;;;;28.02;25.88;;;;;;;13.10;100.00;101133.31;5061255;28;20137;-78
2023/07/28 03:48:37;;;;;;;27.23;24.92;;;;;;;12.92;100.00;101134.00;5057286;28;20040;-78
2023/07/28 03:51:04;;;;;;;26.98;24.40;;;;;;;12.77;100.00;101131.59;5060087;28;20425;-78
2023/07/28 03:53:31;;;;;;;27.38;24.92;;;;;;;13.26;100.00;101130.19;5056860;28;20040;-78
2023/07/28 03:55:58;;;;;;;27.70;25.08;;;;;;;13.61;100.00;101136.94;5062655;28;20051;-78
2023/07/28 03:58:25;;;;;;;27.90;25.50;;;;;;;13.88;100.00;101132.22;5057315;28;20055;-78
2023/07/28 04:00:53;;;;;;;28.17;25.75;;;;;;;14.04;100.00;101136.22;5056578;28;20137;-78
2023/07/28 04:03:24;;;;;;;27.73;25.33;;;;;;;14.08;100.00;101132.09;5063894;28;20565;-78
2023/07/28 04:05:53;;;;;;;27.50;24.88;;;;;;;14.16;100.00;101137.97;5059858;28;20655;-78
2023/07/28 04:08:20;;;;;;;27.05;24.55;;;;;;;14.12;100.00;101130.59;5059018;28;20055;-78
2023/07/28 04:10:47;;;;;;;29.27;26.35;;;;;;;14.07;100.00;101141.97;5063057;28;20044;-79
2023/07/28 04:13:13;;;;;;;27.92;25.42;;;;;;;14.00;100.00;101146.50;5063420;28;20048;-78
2023/07/28 04:15:40;;;;;;;28.05;25.33;;;;;;;14.28;100.00;101148.75;5060012;28;20037;-78
2023/07/28 04:18:08;;;;;;;33.35;25.60;;;;;;;14.36;100.00;101142.28;5057203;28;20060;-78
2023/07/28 04:20:36;;;;;;;26.50;24.30;;;;;;;14.25;100.00;101138.50;5058488;28;20052;-78
2023/07/28 04:23:03;;;;;;;27.20;24.65;;;;;;;14.32;100.00;101147.28;5056203;28;20451;-78
2023/07/28 04:25:29;;;;;;;25.70;23.17;;;;;;;14.29;100.00;101144.22;5058755;28;20090;-78
2023/07/28 04:27:57;;;;;;;25.23;23.10;;;;;;;14.33;100.00;101148.91;5061914;28;20052;-78
2023/07/28 04:30:24;;;;;;;25.05;23.13;;;;;;;14.58;100.00;101148.06;5060823;28;20044;-77
2023/07/28 04:32:50;;;;;;;24.90;22.92;;;;;;;14.72;100.00;101160.25;5065619;28;20047;-77
2023/07/28 04:35:17;;;;;;;26.35;24.25;;;;;;;14.78;100.00;101154.03;5044613;28;20437;-77
2023/07/28 04:37:46;;;;;;;24.27;22.30;;;;;;;14.79;100.00;101149.47;5054991;28;20141;-77
2023/07/28 04:40:13;;;;;;;25.10;23.00;;;;;;;14.98;100.00;101147.63;5066768;28;20045;-77
2023/07/28 04:42:40;;;;;;;26.27;23.90;;;;;;;15.15;100.00;101145.16;5063383;28;20416;-77
2023/07/28 04:45:08;;;;;;;25.75;23.55;;;;;;;15.34;100.00;101152.94;5063147;28;20049;-77
2023/07/28 04:47:35;;;;;;;25.85;23.48;;;;;;;15.48;100.00;101150.06;5064271;28;20124;-77
2023/07/28 04:50:02;;;;;;;25.38;22.92;;;;;;;15.62;100.00;101145.34;5060049;28;20041;-77
2023/07/28 04:52:29;;;;;;;24.52;22.48;;;;;;;15.57;100.00;101144.13;5065807;28;20049;-77
2023/07/28 04:54:57;;;;;;;27.13;25.02;;;;;;;15.94;100.00;101146.69;5065627;28;20064;-77
2023/07/28 04:57:24;;;;;;;27.50;25.10;;;;;;;16.18;100.00;101144.03;5066106;28;20059;-77
2023/07/28 04:59:50;;;;;;;23.75;21.92;;;;;;;16.02;100.00;101138.31;5062386;28;20049;-77
2023/07/28 05:02:17;;;;;;;25.90;23.70;;;;;;;16.03;100.00;101147.16;5063740;28;20423;-77
2023/07/28 05:04:44;;;;;;;25.17;23.27;;;;;;;16.33;100.00;101154.28;5061860;28;20049;-77
2023/07/28 05:07:11;;;;;;;25.17;23.17;;;;;;;16.36;100.00;101149.28;5059495;28;20040;-77
2023/07/28 05:09:38;;;;;;;23.52;21.48;;;;;;;16.39;100.00;101154.16;5065694;28;20551;-78
2023/07/28 05:12:07;;;;;;;25.15;22.95;;;;;;;16.59;100.00;101140.41;5067208;28;20044;-77
2023/07/28 05:14:33;;;;;;;23.10;21.20;;;;;;;16.64;100.00;101147.72;5067524;28;20493;-77
2023/07/28 05:17:00;;;;;;;24.40;22.30;;;;;;;16.96;100.00;101147.38;5062308;28;20044;-78
2023/07/28 05:19:27;;;;;;;24.50;22.30;;;;;;;16.98;100.00;101154.13;5057503;28;20044;-78
2023/07/28 05:21:57;;;;;;;23.50;21.38;;;;;;;17.13;100.00;101146.38;5062941;28;20036;-79
2023/07/28 05:24:27;;;;;;;24.23;22.27;;;;;;;17.10;100.00;101144.16;5062871;28;20090;-77
2023/07/28 05:26:54;;;;;;;23.40;21.38;;;;;;;17.14;100.00;101155.25;5064608;28;20045;-77
2023/07/28 05:29:22;;;;;;;23.88;21.80;;;;;;;17.40;100.00;101145.81;5065439;28;20053;-79
2023/07/28 05:31:49;;;;;;;23.75;21.92;;;;;;;17.27;100.00;101143.41;5060422;28;20049;-77
2023/07/28 05:34:16;;;;;;;24.40;22.50;;;;;;;17.33;100.00;101142.44;5060245;28;20128;-77
2023/07/28 05:36:43;;;;;;;23.70;21.88;;;;;;;17.52;100.00;101149.25;5062069;28;20057;-77
2023/07/28 05:39:11;;;;;;;23.75;21.85;;;;;;;17.63;100.00;101140.28;5064957;28;20080;-77
2023/07/28 05:41:38;;;;;;;24.30;22.50;;;;;;;18.00;100.00;101147.94;5062626;28;20041;-77
2023/07/28 05:44:05;;;;;;;22.90;21.00;;;;;;;18.00;100.00;101147.09;5056833;28;20490;-77
2023/07/28 05:46:33;;;;;;;23.52;21.60;;;;;;;18.12;100.00;101150.50;5061092;28;20040;-77
2023/07/28 05:49:00;;;;;;;23.15;21.23;;;;;;;18.10;100.00;101155.34;5066211;28;20527;-77
2023/07/28 05:51:27;;;;;;;23.25;21.45;;;;;;;18.33;100.00;101148.13;5061383;28;20041;-77
2023/07/28 05:53:55;;;;;;;22.23;20.63;;;;;;;18.50;100.00;101149.72;5061602;28;20064;-77
2023/07/28 05:56:22;;;;;;;21.52;19.95;;;;;;;18.44;100.00;101149.91;5064382;28;20048;-77
2023/07/28 05:58:49;;;;;;;21.00;19.23;;;;;;;18.72;100.00;101149.75;5060781;28;20055;-77
2023/07/28 06:01:18;;;;;;;20.80;19.00;;;;;;;18.51;100.00;101143.28;5063101;28;20056;-76
2023/07/28 06:03:47;;;;;;;20.50;18.80;;;;;;;18.41;100.00;101145.03;5064871;28;20080;-77
2023/07/28 06:06:13;;;;;;;20.23;18.60;;;;;;;18.70;100.00;101145.72;5061148;28;20040;-77
2023/07/28 06:08:40;;;;;;;20.25;18.55;;;;;;;19.06;100.00;101135.38;5063071;28;20052;-77
2023/07/28 06:11:08;;;;;;;20.15;18.35;;;;;;;18.97;100.00;101141.22;5064108;28;20115;-77
2023/07/28 06:13:34;;;;;;;21.65;19.92;;;;;;;19.07;100.00;101135.13;5058850;28;20102;-77
2023/07/28 06:16:01;;;;;;;21.83;20.13;;;;;;;19.12;100.00;101143.28;5060835;28;20041;-77
2023/07/28 06:18:28;;;;;;;21.73;19.42;;;;;;;19.18;100.00;101136.88;5060579;28;20045;-77
2023/07/28 06:20:56;;;;;;;21.63;20.00;;;;;;;19.28;100.00;101138.88;5061751;28;20047;-78
2023/07/28 06:23:23;;;;;;;22.25;20.45;;;;;;;19.02;100.00;101131.56;5061717;28;20052;-78
2023/07/28 06:25:50;;;;;;;22.58;20.65;;;;;;;19.38;100.00;101124.69;5063075;28;20144;-77
2023/07/28 06:28:17;;;;;;;22.27;20.63;;;;;;;19.34;100.00;101129.78;5063012;28;20465;-78
2023/07/28 06:30:45;;;;;;;22.20;20.40;;;;;;;19.63;100.00;101127.59;5063788;28;20049;-77
2023/07/28 06:33:11;;;;;;;21.35;19.73;;;;;;;19.61;100.00;101126.25;5058634;28;20044;-77
2023/07/28 06:35:38;;;;;;;21.00;19.30;;;;;;;19.83;100.00;101136.97;5059014;28;20500;-78
2023/07/28 06:38:07;;;;;;;21.27;19.55;;;;;;;19.93;100.00;101128.16;5060559;28;20052;-77
2023/07/28 06:40:34;;;;;;;19.27;17.88;;;;;;;20.12;100.00;101124.78;5062101;28;20481;-77
2023/07/28 06:43:01;;;;;;;21.20;19.70;;;;;;;20.15;100.00;101120.75;5059330;28;20075;-77
2023/07/28 06:45:28;;;;;;;19.23;17.83;;;;;;;20.08;100.00;101123.66;5060492;28;20046;-77
2023/07/28 06:47:54;;;;;;;21.40;19.55;;;;;;;20.19;100.00;101123.75;5056855;28;20081;-77
2023/07/28 06:50:21;;;;;;;21.33;19.63;;;;;;;20.25;100.00;101120.81;5055495;28;20079;-77
2023/07/28 06:52:49;;;;;;;22.70;20.90;;;;;;;20.50;100.00;101122.84;5061710;28;20425;-77
2023/07/28 06:55:18;;;;;;;22.75;21.15;;;;;;;20.50;100.00;101120.16;5057656;28;20052;-77
2023/07/28 06:57:45;;;;;;;22.83;21.13;;;;;;;20.62;100.00;101111.06;5059170;28;20059;-77
2023/07/28 07:00:13;;;;;;;22.15;20.58;;;;;;;20.65;100.00;101122.13;5057305;28;20047;-78
2023/07/28 07:02:39;;;;;;;22.23;20.52;;;;;;;20.73;100.00;101126.22;5066125;28;20044;-77
2023/07/28 07:05:07;;;;;;;21.13;19.33;;;;;;;21.14;100.00;101110.94;5054144;28;20049;-78
2023/07/28 07:07:34;;;;;;;20.35;18.77;;;;;;;21.00;100.00;101107.97;5058295;28;20040;-78
2023/07/28 07:10:01;;;;;;;22.42;20.83;;;;;;;21.15;100.00;101109.91;5060344;28;20360;-78
2023/07/28 07:12:29;;;;;;;23.42;21.42;;;;;;;21.33;100.00;101113.97;5055373;28;20049;-78
2023/07/28 07:14:56;;;;;;;22.10;20.40;;;;;;;21.64;100.00;101122.13;5055999;28;20067;-78
2023/07/28 07:17:23;;;;;;;23.13;21.33;;;;;;;21.47;100.00;101120.50;5057369;28;20044;-78
2023/07/28 07:19:50;;;;;;;23.58;21.42;;;;;;;21.40;100.00;101111.03;5056348;28;20037;-78
2023/07/28 07:22:17;;;;;;;23.00;21.20;;;;;;;21.18;100.00;101113.94;5062648;28;20515;-78
2023/07/28 07:24:43;;;;;;;24.10;21.65;;;;;;;21.71;100.00;101118.06;5065176;28;20048;-77
2023/07/28 07:27:11;;;;;;;23.80;21.73;;;;;;;21.82;100.00;101121.59;5066975;28;20535;-78
2023/07/28 07:29:40;;;;;;;22.23;20.45;;;;;;;21.95;100.00;101122.94;5066663;28;20105;-78
2023/07/28 07:32:09;;;;;;;21.00;19.50;;;;;;;22.12;100.00;101131.56;5063845;28;20054;-79
2023/07/28 07:34:38;;;;;;;22.42;20.80;;;;;;;22.51;100.00;101124.72;5066756;28;20543;-78
2023/07/28 07:37:05;;;;;;;23.27;21.50;;;;;;;22.70;100.00;101130.34;5066267;28;20067;-78
2023/07/28 07:39:33;;;;;;;24.58;22.02;;;;;;;22.32;100.00;101130.72;5067028;28;20055;-78
2023/07/28 07:42:00;;;;;;;21.52;19.88;;;;;;;22.67;100.00;101129.00;5061991;28;20052;-78
2023/07/28 07:44:28;;;;;;;22.35;20.65;;;;;;;22.69;100.00;101134.13;5060025;28;20057;-78
2023/07/28 07:46:56;;;;;;;21.67;19.92;;;;;;;22.45;100.00;101123.13;5060711;28;20511;-78
2023/07/28 07:49:23;;;;;;;21.13;19.20;;;;;;;22.66;100.00;101123.84;5057852;28;20052;-78
2023/07/28 07:51:50;;;;;;;21.92;20.23;;;;;;;23.02;100.00;101114.50;5055686;28;20135;-78
2023/07/28 07:54:18;;;;;;;21.98;20.23;;;;;;;23.76;100.00;101115.38;5056080;28;20048;-78
2023/07/28 07:56:46;;;;;;;22.63;20.83;;;;;;;22.79;100.00;101115.97;5061076;28;20447;-78
2023/07/28 07:59:13;;;;;;;24.00;22.00;;;;;;;22.98;100.00;101112.66;5054052;28;20045;-78
2023/07/28 08:01:40;;;;;;;23.60;21.50;;;;;;;23.45;100.00;101097.69;5056763;28;20127;-78
2023/07/28 08:04:09;;;;;;;23.73;21.90;;;;;;;23.38;100.00;101102.63;5059918;28;20048;-79
2023/07/28 08:06:36;;;;;;;24.27;22.27;;;;;;;23.81;100.00;101103.66;5062597;28;20449;-78
2023/07/28 08:09:02;;;;;;;23.30;21.63;;;;;;;23.58;100.00;101110.63;5065404;28;20428;-79
2023/07/28 08:11:30;;;;;;;23.38;21.77;;;;;;;24.06;100.00;101099.91;5064915;28;20499;-77
2023/07/28 08:13:56;;;;;;;22.50;20.80;;;;;;;24.52;100.00;101102.13;5067057;28;20075;-78
2023/07/28 08:16:23;;;;;;;23.05;21.25;;;;;;;23.99;100.00;101102.97;5067566;28;20044;-78
2023/07/28 08:18:50;;;;;;;20.83;19.27;;;;;;;23.89;100.00;101094.09;5069377;28;20055;-78
2023/07/28 08:21:18;;;;;;;23.83;21.83;;;;;;;24.60;100.00;101096.06;5059891;28;20048;-78
2023/07/28 08:23:45;;;;;;;23.63;21.73;;;;;;;24.09;100.00;101093.09;5066862;28;20509;-79
2023/07/28 08:26:12;;;;;;;23.00;21.30;;;;;;;23.53;100.00;101097.91;5065641;28;20055;-79
2023/07/28 08:28:39;;;;;;;22.48;20.65;;;;;;;23.72;100.00;101092.63;5060309;28;20048;-79
2023/07/28 08:31:06;;;;;;;21.73;20.23;;;;;;;24.44;100.00;101083.75;5065886;28;20516;-79
2023/07/28 08:33:33;;;;;;;23.55;21.88;;;;;;;24.13;100.00;101094.13;5066568;28;20076;-79
2023/07/28 08:35:59;;;;;;;23.52;21.70;;;;;;;24.63;100.00;101081.06;5058731;28;20524;-78
2023/07/28 08:38:28;;;;;;;22.80;21.10;;;;;;;25.08;100.00;101097.84;5059028;28;20432;-79
2023/07/28 08:40:54;;;;;;;22.42;20.73;;;;;;;25.61;100.00;101084.00;5057638;28;20049;-79
2023/07/28 08:43:22;;;;;;;22.17;20.48;;;;;;;25.51;97.99;101076.84;5055264;28;20490;-79
2023/07/28 08:45:48;;;;;;;23.67;21.98;;;;;;;24.76;100.00;101077.66;5056657;28;20048;-79
2023/07/28 08:48:15;;;;;;;21.65;20.08;;;;;;;24.86;100.00;101084.84;5055186;28;20043;-79
2023/07/28 08:50:42;;;;;;;22.23;20.33;;;;;;;24.75;100.00;101080.66;5059905;28;20048;-78
2023/07/28 08:53:09;;;;;;;22.65;20.95;;;;;;;24.47;98.29;101083.19;5063286;28;20040;-78
2023/07/28 08:55:38;;;;;;;23.35;21.65;;;;;;;24.46;98.17;101081.56;5063216;28;20044;-78
2023/07/28 08:58:18;;;;;;;23.00;21.30;;;;;;;25.11;100.00;101089.94;5067720;28;20048;-78
2023/07/28 09:00:48;;;;;;;23.02;21.33;;;;;;;25.48;100.00;101077.44;5068967;28;20409;-78
2023/07/28 09:03:16;;;;;;;22.20;20.40;;;;;;;25.08;85.90;101085.09;5069044;28;20499;-78
2023/07/28 09:05:44;;;;;;;21.27;19.48;;;;;;;25.21;89.42;101082.75;5068848;28;20052;-78
2023/07/28 09:08:11;;;;;;;21.15;19.45;;;;;;;25.67;94.98;101080.09;5068907;28;20072;-78
2023/07/28 09:10:48;;;;;;;22.65;20.95;;;;;;;25.45;100.00;101074.50;5069254;28;20043;-78
2023/07/28 09:13:17;;;;;;;23.92;22.23;;;;;;;26.33;88.07;101075.34;5061976;28;20072;-78
2023/07/28 09:15:44;;;;;;;24.88;22.98;;;;;;;25.99;100.00;101070.28;5068122;28;20144;-78
2023/07/28 09:18:12;;;;;;;25.10;22.98;;;;;;;25.89;95.20;101059.59;5063907;28;20044;-78
2023/07/28 09:20:41;;;;;;;24.83;22.92;;;;;;;25.68;71.09;101056.41;5059551;28;20048;-78
2023/07/28 09:23:09;;;;;;;25.60;23.50;;;;;;;25.99;83.37;101062.94;5061272;28;20117;-78
2023/07/28 09:25:37;;;;;;;24.60;22.60;;;;;;;26.35;86.93;101062.22;5062939;28;20518;-78
2023/07/28 09:28:06;;;;;;;26.83;24.65;;;;;;;26.74;80.45;101060.88;5061218;28;20445;-78
2023/07/28 09:30:46;;;;;;;26.70;24.70;;;;;;;26.47;61.68;101059.00;5060266;28;20072;-78
2023/07/28 09:33:13;;;;;;;24.10;22.30;;;;;;;25.51;65.23;101057.78;5064375;28;20087;-78
2023/07/28 09:35:49;;;;;;;22.60;20.70;;;;;;;26.38;87.46;101067.06;5065450;28;20063;-78
2023/07/28 09:38:16;;;;;;;23.05;21.17;;;;;;;26.66;98.86;101054.25;5062483;28;20061;-78
2023/07/28 09:40:44;;;;;;;25.50;23.90;;;;;;;27.48;78.10;101046.91;5063174;28;20105;-78
2023/07/28 09:43:13;;;;;;;23.77;21.88;;;;;;;27.51;77.11;101048.22;5063635;28;20049;-78
2023/07/28 09:45:40;;;;;;;21.63;19.90;;;;;;;26.79;82.45;101046.38;5065231;28;20045;-79
2023/07/28 09:48:10;;;;;;;23.02;21.23;;;;;;;27.68;63.73;101037.38;5061218;28;20500;-78
2023/07/28 09:50:41;;;;;;;23.15;21.25;;;;;;;26.86;79.14;101052.19;5063022;28;20075;-79
2023/07/28 09:53:10;;;;;;;24.58;22.67;;;;;;;26.28;57.85;101046.31;5060753;28;20079;-79
2023/07/28 09:55:40;;;;;;;23.35;21.55;;;;;;;25.80;59.22;101043.94;5063391;28;20110;-79
2023/07/28 09:58:11;;;;;;;24.67;22.75;;;;;;;26.65;100.00;101049.09;5062360;28;20420;-79
2023/07/28 10:00:41;;;;;;;23.67;21.98;;;;;;;26.33;59.98;101041.88;5059573;28;20433;-79
2023/07/28 10:03:09;;;;;;;23.48;21.75;;;;;;;26.41;64.54;101036.50;5063882;28;20075;-79
2023/07/28 10:05:36;;;;;;;23.17;21.27;;;;;;;26.71;65.83;101039.72;5062900;28;20051;-79
2023/07/28 10:08:05;;;;;;;24.80;23.00;;;;;;;27.02;66.68;101044.44;5066098;28;20071;-79
2023/07/28 10:10:34;;;;;;;23.75;22.05;;;;;;;26.46;83.64;101047.28;5064441;28;20053;-79
2023/07/28 10:13:04;;;;;;;23.55;21.75;;;;;;;26.73;76.80;101038.28;5063415;28;20503;-79
2023/07/28 10:15:32;;;;;;;25.27;23.48;;;;;;;25.95;57.45;101040.16;5062313;28;20040;-79
2023/07/28 10:18:01;;;;;;;23.95;22.15;;;;;;;26.51;82.35;101035.53;5063690;28;20109;-80
2023/07/28 10:20:29;;;;;;;25.52;23.83;;;;;;;25.92;84.32;101034.50;5063915;28;20500;-78
2023/07/28 10:23:04;;;;;;;27.20;25.10;;;;;;;26.79;62.96;101030.00;5060886;28;20052;-79
2023/07/28 10:25:37;;;;;;;24.10;22.30;;;;;;;26.45;65.69;101031.28;5063745;28;20045;-78
2023/07/28 10:28:05;;;;;;;23.98;22.17;;;;;;;26.82;75.62;101032.13;5063625;28;20048;-79
2023/07/28 10:30:38;;;;;;;23.05;21.25;;;;;;;27.01;100.00;101024.56;5062800;28;20040;-79
2023/07/28 10:33:06;;;;;;;23.40;21.50;;;;;;;26.50;80.53;101023.00;5062504;28;20090;-78
2023/07/28 10:35:48;;;;;;;23.20;21.55;;;;;;;26.81;54.09;101014.97;5065274;28;20500;-78
2023/07/28 10:38:35;;;;;;;23.60;21.90;;;;;;;27.04;100.00;101013.06;5056244;28;20059;-78
2023/07/28 10:41:14;;;;;;;23.20;21.40;;;;;;;27.45;100.00;101014.00;5061181;28;20095;-79
2023/07/28 10:43:41;;;;;;;23.83;21.98;;;;;;;27.40;100.00;101002.09;5059140;28;20041;-78
2023/07/28 10:46:10;;;;;;;26.40;24.65;;;;;;;27.25;78.35;100990.78;5063398;28;20041;-79
2023/07/28 10:48:43;;;;;;;25.02;23.33;;;;;;;27.42;73.54;100987.34;5062113;28;20053;-79
2023/07/28 10:51:12;;;;;;;23.48;21.65;;;;;;;27.01;99.05;100996.53;5060357;28;20201;-78
2023/07/28 10:53:39;;;;;;;25.55;23.60;;;;;;;27.25;100.00;100980.66;5063294;28;20520;-79
2023/07/28 10:56:08;;;;;;;25.58;23.63;;;;;;;28.25;71.02;100971.91;5065842;28;20044;-79
2023/07/28 10:58:36;;;;;;;24.58;22.67;;;;;;;27.48;71.46;100978.72;5054755;28;20083;-79
2023/07/28 11:01:04;;;;;;;24.98;23.08;;;;;;;27.54;67.29;100976.66;5060097;28;20131;-79
2023/07/28 11:03:30;;;;;;;24.70;22.70;;;;;;;27.63;76.59;100958.41;5071896;28;20057;-79
2023/07/28 11:05:59;;;;;;;25.00;22.95;;;;;;;27.80;90.85;100961.22;5060649;28;20127;-79